Terminal Aerodrome Forecast
Issued by NWS

Home | Current Version | Previous Version | Text Only | Print | Product List | Glossary Off
Versions: 1 2 3 4 5 6 7 8 9 10 11 12 13 14 15 16 17

406
FTUS43 KMPX 212332
TAFRWF
TAF
KRWF 212332Z 2200/2224 05013KT P6SM VCSH BKN050
     FM220200 06008KT P6SM VCTS SCT015 OVC035CB
      TEMPO 2202/2206 4SM SHRA BKN015
     FM220600 04005KT 6SM BR VCSH OVC011
     FM220900 03005KT 5SM BR OVC007
     FM222000 05008KT P6SM OVC015=

USA.gov is the U.S. government's official web portal to all federal, state and local government web resources and services.